Date,TemperatureHighF,TemperatureAvgF,TemperatureLowF,DewpointHighF,DewpointAvgF,DewpointLowF,HumidityHigh,HumidityAvg,HumidityLow,PressureMaxIn,PressureMinIn,WindSpeedMaxMPH,WindSpeedAvgMPH,GustSpeedMaxMPH,PrecipitationSumIn
2013-1-1,19.5,10.2,4.7,5.4,0.1,-6.7,92,65,46,30.48,30.28,23,2,23,0.00
2013-1-2,21.8,12.3,5.2,0.7,-3.1,-6.9,70,50,37,30.57,30.40,14,2,14,0.00
2013-1-3,26.5,14.1,3.3,-2.7,-7.9,-13.8,68,39,21,30.67,30.53,4,1,10,0.00
2013-1-4,36.8,25.1,16.8,8.2,0.4,-9.2,42,34,29,30.53,30.16,4,1,11,0.00
2013-1-5,38.2,27.9,19.6,5.7,0.3,-5.8,42,30,22,30.40,30.16,6,2,16,0.00
2013-1-6,43.2,29.8,19.1,3.6,-1.0,-3.9,39,27,17,30.39,30.09,12,3,25,0.00
2013-1-7,41.9,31.7,25.2,8.0,0.5,-3.6,31,26,20,30.09,29.91,5,1,10,0.00
2013-1-8,41.9,33.1,27.0,12.8,6.2,-4.2,49,33,22,30.28,29.86,11,4,24,0.00
2013-1-9,45.2,33.1,23.3,11.9,7.6,4.2,50,35,22,30.44,30.13,5,2,11,0.00
2013-1-10,42.4,32.4,24.7,16.2,4.7,-1.8,62,32,19,30.13,29.53,13,5,27,0.00
2013-1-11,25.9,15.0,2.3,18.3,2.0,-11.7,84,57,33,29.98,29.28,17,8,33,0.00
2013-1-12,11.8,2.7,-4.6,-6.8,-11.3,-15.3,80,53,30,30.30,29.97,7,2,14,0.00
2013-1-13,7.5,-0.4,-7.1,-5.8,-9.6,-13.1,83,66,43,30.48,30.30,8,3,15,0.00
2013-1-14,12.5,1.6,-4.8,1.5,-5.5,-10.9,81,72,52,30.49,30.39,5,2,10,0.00
2013-1-15,22.9,9.6,-5.0,6.9,-5.7,-18.6,62,50,38,30.61,30.44,6,4,20,0.00
2013-1-16,38.4,26.7,16.4,15.7,11.5,5.7,66,53,38,30.61,30.41,7,2,16,0.00
2013-1-17,38.7,27.9,18.8,16.7,13.1,10.6,71,54,40,30.57,30.40,8,2,15,0.00
2013-1-18,40.5,30.7,21.1,11.1,6.5,-0.2,60,37,25,30.40,30.22,8,4,17,0.00
2013-1-19,44.8,34.2,23.0,7.6,1.9,-2.6,35,25,19,30.37,30.24,7,3,18,0.00
2013-1-20,43.9,33.1,22.7,5.2,-0.9,-8.2,45,25,16,30.24,30.09,8,3,17,0.00
2013-1-21,42.7,33.4,22.0,10.1,4.5,-4.7,46,30,20,30.27,30.18,10,5,22,0.00
2013-1-22,49.7,40.8,32.4,0.3,-4.6,-9.2,20,14,11,30.23,30.13,11,7,25,0.00
2013-1-23,54.5,44.0,36.0,1.2,-5.6,-12.8,17,12,9,30.20,30.09,7,4,19,0.00
2013-1-24,46.3,39.4,34.4,23.3,12.5,-3.7,63,36,16,30.11,29.93,10,6,25,0.00
2013-1-25,43.2,36.3,32.0,27.0,24.4,21.5,71,62,48,30.16,30.06,10,2,18,0.00
2013-1-26,43.6,35.7,31.0,31.8,26.1,20.8,91,69,54,30.08,29.63,20,4,32,0.12
2013-1-27,42.8,35.5,31.1,27.3,22.8,15.7,77,60,41,29.81,29.63,20,8,44,0.00
2013-1-28,36.4,28.8,19.5,28.4,19.2,4.1,89,67,46,29.76,29.51,15,6,35,0.00
2013-1-29,19.3,14.1,7.7,9.9,-1.7,-10.8,74,50,29,30.12,29.63,10,4,20,0.00
2013-1-30,26.2,15.9,4.5,6.2,-1.3,-10.6,53,46,36,30.27,30.13,13,7,30,0.00
2013-1-31,35.6,27.0,20.3,11.2,7.5,4.1,57,44,34,30.30,30.20,14,7,32,0.00
2013-2-1,36.1,28.2,22.5,11.3,8.7,5.8,55,44,32,30.30,30.14,23,6,29,0.00
2013-2-2,43.5,32.2,21.0,9.0,5.0,2.5,48,32,20,30.42,30.28,13,3,20,0.00
2013-2-3,40.9,32.9,27.6,10.6,3.6,-2.5,40,29,18,30.32,29.92,17,3,19,0.00
2013-2-4,43.4,32.6,24.0,7.2,2.6,-1.7,34,28,20,30.02,29.93,19,4,20,0.00
2013-2-5,48.0,34.9,24.5,13.0,8.4,4.7,47,34,20,30.10,29.91,18,3,22,0.00
2013-2-6,42.2,35.0,28.7,15.3,12.0,8.2,56,39,27,29.94,29.76,21,4,22,0.00
2013-2-7,41.1,28.1,19.2,17.6,9.6,-6.6,75,49,15,30.19,29.94,13,2,16,0.00
2013-2-8,38.9,30.6,23.0,19.1,14.8,8.5,65,52,39,30.17,29.75,29,7,46,0.00
2013-2-9,31.0,24.7,18.0,17.8,11.5,5.0,86,57,37,29.75,29.45,25,4,28,0.00
2013-2-10,26.3,17.5,11.7,11.9,3.3,-5.2,86,55,27,30.14,29.61,21,4,25,0.00
2013-2-11,16.1,10.6,6.3,12.4,6.8,2.5,86,84,81,30.33,30.13,12,1,13,0.00
2013-2-12,25.6,17.0,3.3,13.6,6.8,-2.0,84,65,48,30.42,30.33,9,2,10,0.10
2013-2-13,34.2,23.2,13.2,12.6,7.7,3.6,69,52,36,30.35,30.17,19,4,24,0.02
2013-2-14,32.4,23.3,11.8,14.2,8.6,3.8,87,56,31,30.35,30.14,14,2,14,0.00
2013-2-15,29.7,22.9,10.1,9.0,2.3,-2.1,87,42,27,30.52,30.34,20,6,21,0.00
2013-2-16,40.2,29.5,19.7,11.8,5.8,2.4,48,37,28,30.49,30.13,23,6,26,0.00
2013-2-17,39.5,32.8,24.4,11.4,2.1,-4.7,57,27,20,30.13,29.65,19,4,27,0.00
2013-2-18,29.2,21.8,13.0,11.4,0.8,-6.8,78,42,25,30.22,29.67,15,4,22,0.00
2013-2-19,35.6,27.6,14.3,5.0,1.1,-7.4,58,32,17,30.23,29.83,21,4,21,0.00
2013-2-20,30.1,23.1,18.6,17.1,14.3,2.3,89,70,44,29.84,29.55,12,2,12,0.00
2013-2-21,29.3,19.7,13.6,23.0,15.7,10.7,92,84,62,29.97,29.62,9,1,14,0.15
2013-2-22,26.0,18.6,14.2,16.0,10.6,6.7,87,71,48,30.08,29.96,9,2,11,0.01
2013-2-23,33.7,21.5,11.7,17.2,7.9,-1.6,87,56,42,30.10,29.79,28,15,28,0.05
2013-2-24,20.3,15.8,9.0,16.9,11.3,3.8,89,82,72,30.22,29.72,16,6,16,0.00
2013-2-25,33.1,24.3,6.1,12.2,7.4,-0.4,84,49,36,30.33,30.03,10,3,15,0.11
2013-2-26,23.6,18.3,10.7,16.4,8.2,2.1,88,66,44,30.27,29.81,11,2,15,0.00
2013-2-27,27.8,15.4,6.9,8.4,0.3,-4.8,71,53,29,30.52,30.27,13,2,18,0.07
2013-2-28,32.2,20.4,7.8,6.7,0.7,-6.3,54,42,30,30.51,30.40,19,5,22,0.01
2013-3-1,41.6,28.8,19.4,16.3,11.2,6.2,60,48,34,30.47,30.38,20,5,21,0.00
2013-3-2,47.5,36.3,25.5,19.8,16.3,13.5,64,45,32,30.45,30.15,18,12,18,0.00
2013-3-3,44.7,38.2,32.0,21.8,16.3,10.4,65,42,29,30.12,29.67,33,18,33,0.00
2013-3-4,38.5,29.3,14.3,24.6,20.0,10.6,89,70,38,30.16,29.66,26,11,26,0.00
2013-3-5,44.7,29.2,9.2,11.7,4.0,-5.4,87,39,16,30.41,30.16,21,10,21,0.03
2013-3-6,47.2,39.2,31.2,18.6,11.1,2.1,38,31,26,30.24,29.83,33,18,33,0.00
2013-3-7,51.3,44.5,37.8,14.4,10.1,6.2,36,25,18,29.88,29.78,47,8,47,0.00
2013-3-8,46.3,37.6,29.0,24.7,18.0,11.4,77,47,30,29.83,29.52,22,4,28,0.00
2013-3-9,29.0,24.1,16.6,22.4,19.7,13.4,89,83,71,30.10,29.48,23,2,23,0.00
2013-3-10,36.1,21.2,9.8,17.3,10.1,4.5,87,65,35,30.31,30.10,17,3,18,0.20
2013-3-11,43.6,35.7,23.7,17.4,13.8,8.3,53,41,32,30.29,30.00,23,7,23,0.01
2013-3-12,45.8,33.6,22.0,23.1,18.3,14.4,80,55,36,30.27,30.08,14,2,22,0.00
2013-3-13,51.7,40.1,32.9,23.1,17.6,14.2,51,41,30,30.29,30.20,16,4,21,0.00
2013-3-14,58.1,44.9,35.6,19.7,15.9,13.0,42,32,20,30.30,30.12,13,3,16,0.00
2013-3-15,56.9,48.3,41.5,22.4,17.3,14.2,36,29,22,30.11,29.78,20,5,24,0.00
2013-3-16,45.0,37.6,30.2,30.5,23.3,17.3,86,58,33,29.80,29.69,12,2,15,0.00
2013-3-17,41.4,33.0,27.3,26.6,19.4,11.1,86,58,32,29.82,29.57,25,5,30,0.01
2013-3-18,35.9,29.0,23.2,14.6,7.5,1.3,59,40,31,30.04,29.81,22,7,30,0.00
2013-3-19,41.0,31.6,24.4,10.2,5.7,-4.2,45,34,15,30.26,30.02,12,3,21,0.00
2013-3-20,45.2,31.8,18.2,21.2,10.5,0.4,57,42,26,30.27,29.86,21,4,27,0.00
2013-3-21,41.1,33.8,26.8,27.2,17.9,5.2,84,53,34,29.86,29.52,29,6,40,0.00
2013-3-22,38.2,28.0,19.7,20.3,13.9,5.2,89,59,32,29.81,29.66,16,3,19,0.00
2013-3-23,26.2,12.7,4.1,13.3,7.7,0.1,92,81,44,30.35,29.71,16,3,18,0.00
2013-3-24,21.9,10.2,1.6,8.5,3.3,-2.4,92,74,50,30.47,30.33,12,2,16,0.05
2013-3-25,31.0,15.0,1.6,11.3,3.5,-3.9,92,63,28,30.52,30.44,13,1,16,0.02
2013-3-26,45.6,31.6,12.5,18.0,11.7,4.3,78,45,30,30.49,30.05,18,4,21,0.00
2013-3-27,51.0,39.4,32.4,24.6,17.2,11.0,61,42,24,30.05,29.91,17,4,29,0.00
2013-3-28,51.9,39.6,28.2,23.0,19.8,15.2,72,47,24,30.10,30.00,11,2,17,0.00
2013-3-29,53.7,42.9,34.8,23.7,20.5,16.5,55,42,26,30.09,29.98,18,3,18,0.00
2013-3-30,53.1,43.1,36.2,24.6,20.6,16.8,61,42,27,30.06,29.92,18,3,21,0.00
2013-3-31,56.9,42.2,28.5,27.1,20.3,10.5,90,49,21,30.04,29.90,15,3,16,0.00
2013-4-1,51.7,37.2,24.1,26.4,20.4,13.0,87,53,29,29.98,29.76,17,3,18,0.00
2013-4-2,39.7,27.7,21.9,26.9,23.1,19.2,92,84,59,30.18,29.95,18,2,19,0.00
2013-4-3,46.5,33.0,23.6,32.1,24.3,16.3,93,73,35,30.24,30.15,15,1,16,0.28
2013-4-4,57.6,43.6,30.4,23.2,17.7,14.0,55,36,21,30.24,29.99,12,2,18,0.00
2013-4-5,57.3,46.1,37.1,29.1,20.5,14.6,72,38,22,29.98,29.61,24,6,27,0.00
2013-4-6,53.7,42.8,34.0,29.1,18.9,7.3,73,42,18,29.82,29.70,21,4,25,0.00
2013-4-7,50.7,41.4,33.8,25.1,20.9,17.8,63,45,31,29.78,29.63,21,5,26,0.00
2013-4-8,55.0,43.6,36.1,28.4,20.7,15.9,58,41,25,29.67,29.25,28,4,34,0.00
2013-4-9,41.8,18.7,7.0,29.0,13.8,3.4,88,81,49,30.08,29.31,19,3,27,0.02
2013-4-10,31.9,16.3,3.0,22.6,11.3,-1.0,89,81,62,30.31,30.08,9,2,13,0.02
2013-4-11,44.8,32.0,18.9,24.8,17.1,8.5,86,55,35,30.15,29.90,19,5,24,0.00
2013-4-12,46.4,34.6,23.4,27.0,22.0,16.4,90,64,31,29.99,29.87,17,3,20,0.00
2013-4-13,52.7,41.1,26.9,27.4,18.8,14.0,87,44,25,29.98,29.39,22,6,30,0.00
2013-4-14,40.1,34.4,28.2,30.8,21.3,9.9,92,62,38,29.68,29.34,29,5,37,0.23
2013-4-15,52.2,33.3,21.2,24.8,15.6,5.2,81,50,30,29.84,29.57,29,6,36,0.00
2013-4-16,31.6,24.0,16.0,22.2,18.5,13.3,91,80,63,29.96,29.77,20,7,27,0.00
2013-4-17,23.1,19.3,9.4,20.9,16.8,6.1,92,90,86,30.15,29.83,18,5,19,0.00
2013-4-18,26.5,17.0,5.2,13.8,6.5,0.5,88,66,36,30.48,30.15,16,3,21,0.14
2013-4-19,41.1,29.4,15.3,16.6,10.0,0.3,57,44,33,30.48,30.10,16,5,24,0.02
2013-4-20,42.9,33.5,29.3,26.7,19.8,13.9,83,58,41,30.10,29.89,20,4,21,0.00
2013-4-21,50.5,38.9,29.2,25.2,18.6,10.2,79,47,21,30.12,29.98,19,3,22,0.00
2013-4-22,54.9,37.8,16.0,27.2,21.0,13.0,89,55,24,29.98,29.68,22,6,25,0.00
2013-4-23,23.6,16.6,12.2,20.3,13.2,9.1,89,86,81,30.43,29.96,11,2,13,0.06
2013-4-24,44.7,33.6,13.8,17.8,12.7,6.0,86,44,24,30.44,30.30,15,4,21,0.01
2013-4-25,55.1,41.6,26.9,25.5,19.2,11.9,64,42,27,30.32,29.88,21,4,24,0.00
2013-4-26,51.3,42.7,34.7,28.1,21.9,16.4,67,45,28,30.20,29.91,17,3,22,0.00
2013-4-27,59.8,46.7,34.7,25.8,18.7,9.9,68,37,17,30.19,30.00,13,3,21,0.00
2013-4-28,66.1,52.6,41.6,22.8,17.7,12.8,33,26,18,30.00,29.70,17,3,18,0.00
2013-4-29,64.9,54.7,44.7,25.7,21.2,17.8,40,28,19,29.73,29.48,23,4,29,0.00
2013-4-30,65.7,55.1,40.0,31.4,22.6,16.3,70,30,17,29.52,29.38,21,5,26,0.00
2013-5-1,39.9,25.7,15.8,31.2,22.7,13.1,93,88,71,30.58,29.51,16,4,17,0.00
2013-5-2,33.4,22.2,12.6,28.5,18.7,9.7,98,87,76,30.86,30.58,9,1,12,0.33
2013-5-3,53.1,36.1,22.0,24.0,18.4,14.1,90,52,26,30.64,30.11,13,3,15,0.00
2013-5-4,49.1,38.0,27.6,26.6,19.5,14.5,61,48,36,30.16,29.99,16,3,19,0.00
2013-5-5,49.9,36.6,26.5,26.5,18.6,13.7,60,49,32,30.16,30.06,10,2,13,0.00
2013-5-6,48.9,38.6,32.0,39.4,29.1,16.8,92,69,51,30.11,29.87,15,2,21,0.16
2013-5-7,54.4,41.8,35.5,37.4,29.9,24.0,82,64,33,29.96,29.86,16,3,19,0.00
2013-5-8,43.8,36.8,31.0,35.2,30.5,26.8,94,79,57,30.06,29.87,25,2,28,0.64
2013-5-9,35.4,32.9,31.2,33.2,30.4,28.8,93,90,87,30.28,30.03,9,1,10,0.49
2013-5-10,46.6,38.8,30.1,39.1,30.8,26.9,89,74,57,30.33,30.23,13,1,15,0.07
2013-5-11,58.4,43.5,36.2,35.3,30.4,25.8,73,61,31,30.35,30.19,13,2,17,0.01
2013-5-12,63.9,51.7,39.5,35.0,29.9,27.2,72,45,27,30.23,30.03,17,3,17,0.00
2013-5-13,67.6,56.9,49.6,36.6,31.3,25.6,46,38,27,30.06,29.89,16,2,18,0.00
2013-5-14,64.5,55.7,49.3,41.1,34.9,31.2,64,46,31,29.89,29.73,16,3,21,0.00
2013-5-15,63.1,51.2,44.6,40.0,36.8,33.1,80,59,36,29.80,29.73,21,3,25,0.01
2013-5-16,68.8,55.2,42.6,38.1,32.9,28.5,80,46,23,29.79,29.65,17,3,21,0.00
2013-5-17,67.0,58.8,46.1,29.8,21.0,9.0,52,25,14,29.70,29.59,20,5,26,0.00
2013-5-18,62.1,50.4,40.1,31.0,22.4,12.5,59,34,18,29.66,29.55,21,4,28,0.00
2013-5-19,52.4,43.2,37.9,27.7,24.3,19.9,61,48,30,29.81,29.66,19,5,23,0.00
2013-5-20,53.7,41.0,35.0,36.8,27.3,22.4,83,60,34,29.96,29.77,13,4,17,0.08
2013-5-21,60.1,46.2,35.3,29.8,25.3,21.2,70,46,24,29.99,29.81,15,3,19,0.00
2013-5-22,66.0,50.9,37.3,34.5,29.5,25.2,71,47,23,29.83,29.67,23,3,35,0.00
2013-5-23,66.1,47.1,38.8,42.2,38.1,29.0,89,73,32,29.90,29.74,15,3,21,0.00
2013-5-24,70.2,56.3,39.0,40.1,25.9,14.7,93,40,15,29.94,29.79,32,6,33,0.00
2013-5-25,71.6,60.9,49.6,23.2,18.7,15.5,30,20,13,29.80,29.61,23,5,29,0.00
2013-5-26,72.6,61.1,50.2,23.3,19.1,13.7,29,20,12,29.68,29.52,20,4,24,0.00
2013-5-27,67.9,58.4,49.4,24.4,19.7,14.1,27,22,18,29.63,29.47,27,4,30,0.00
2013-5-28,69.3,56.7,42.7,27.4,18.9,8.3,53,24,14,29.57,29.36,23,4,28,0.00
2013-5-29,58.2,48.9,41.6,30.5,23.6,18.5,63,38,23,29.57,29.35,19,5,26,0.00
2013-5-30,58.2,48.0,38.3,22.4,19.6,13.4,52,34,20,29.77,29.56,27,7,41,0.00
2013-5-31,58.7,49.3,41.1,24.1,16.8,7.5,48,29,15,29.91,29.72,27,7,28,0.00
2013-6-1,65.1,49.4,38.2,30.5,21.2,10.7,58,34,19,30.02,29.91,13,3,21,0.00
2013-6-2,74.2,55.5,37.7,31.3,27.7,22.2,72,40,17,30.02,29.71,14,3,21,0.00
2013-6-3,74.1,61.5,53.2,34.3,29.3,25.1,39,30,18,29.72,29.50,26,4,36,0.00
2013-6-4,71.1,59.4,50.6,41.9,31.7,27.7,72,36,23,29.73,29.62,24,3,34,0.00
2013-6-5,56.6,47.4,41.5,44.5,41.7,39.6,94,81,62,29.98,29.73,15,3,18,0.01
2013-6-6,70.5,52.7,40.1,41.0,36.3,28.5,98,59,23,29.99,29.87,20,2,20,0.01
2013-6-7,67.2,54.0,45.8,44.6,38.1,32.9,81,56,29,29.92,29.70,22,1,25,0.07
2013-6-8,77.0,61.3,50.5,42.5,35.1,26.2,62,40,16,29.72,29.56,16,3,26,0.00
2013-6-9,82.1,62.9,45.4,40.3,35.0,27.7,77,42,14,29.81,29.70,16,3,19,0.00
2013-6-10,84.0,69.1,57.8,35.8,31.8,29.4,35,26,17,29.75,29.55,20,3,22,0.00
2013-6-11,82.0,70.4,62.5,31.2,25.7,15.9,28,20,9,29.65,29.46,29,6,42,0.00
2013-6-12,82.5,69.2,57.7,33.7,26.2,20.4,27,20,15,29.76,29.64,17,2,22,0.00
2013-6-13,81.0,66.2,58.5,42.9,30.2,20.5,50,27,18,29.72,29.58,24,3,27,0.01
2013-6-14,76.4,63.5,53.9,44.0,37.6,33.3,59,40,23,29.72,29.56,27,5,31,0.01
2013-6-15,75.1,61.4,48.7,40.3,33.1,25.3,69,38,18,29.81,29.65,22,3,25,0.00
2013-6-16,75.5,57.1,50.1,49.0,37.4,31.3,74,49,24,29.91,29.75,23,2,35,0.20
2013-6-17,75.3,58.9,49.7,40.5,36.4,28.4,68,46,20,29.93,29.80,18,3,20,0.00
2013-6-18,72.4,57.5,45.6,43.1,38.8,31.3,81,53,26,29.89,29.68,22,4,22,0.04
2013-6-19,77.8,61.5,43.8,43.8,28.7,13.8,88,40,11,29.73,29.54,32,6,37,0.01
2013-6-20,76.9,65.9,54.2,23.0,17.0,11.5,21,15,10,29.60,29.51,25,6,30,0.00
2013-6-21,77.0,65.7,55.3,28.0,21.9,14.8,23,19,14,29.64,29.52,26,5,28,0.00
2013-6-22,76.0,65.5,56.1,27.0,23.1,18.8,27,20,14,29.60,29.46,22,5,30,0.00
2013-6-23,74.5,62.5,52.5,42.0,31.5,16.9,52,32,15,29.67,29.51,18,3,21,0.00
2013-6-24,74.1,61.7,49.5,45.7,29.9,17.2,84,38,14,29.64,29.53,25,6,31,0.00
2013-6-25,77.8,66.4,56.3,34.1,27.3,18.4,27,23,19,29.71,29.59,18,5,28,0.00
2013-6-26,85.2,71.1,58.2,38.5,33.6,29.4,37,26,15,29.78,29.66,15,2,17,0.00
2013-6-27,89.8,74.1,62.8,42.8,35.3,30.0,43,26,13,29.85,29.70,18,3,24,0.00
2013-6-28,82.8,66.6,57.7,46.3,42.8,33.3,63,45,18,29.90,29.74,34,3,34,0.07
2013-6-29,78.8,58.4,48.4,51.2,44.4,40.8,91,62,28,29.96,29.78,14,2,24,0.86
2013-6-30,68.8,55.8,49.9,52.5,46.7,40.5,93,73,47,30.04,29.86,15,2,18,0.09
2013-7-1,66.4,55.0,47.0,50.8,47.0,44.4,95,76,50,30.08,29.99,17,2,18,0.09
2013-7-2,70.8,56.1,46.5,49.9,44.5,41.2,93,68,37,30.06,29.89,15,2,21,0.01
2013-7-3,72.3,56.9,48.0,44.8,40.7,33.7,81,58,26,29.95,29.75,25,2,28,0.02
2013-7-4,78.7,62.8,51.9,44.8,40.4,36.9,61,46,24,29.80,29.66,14,2,18,0.00
2013-7-5,79.0,63.9,53.5,49.5,44.0,39.0,82,50,30,29.68,29.50,19,3,20,0.00
2013-7-6,76.8,62.6,53.8,51.0,45.9,40.8,79,56,32,29.77,29.61,18,2,22,0.01
2013-7-7,76.2,63.9,55.2,49.1,46.2,43.6,71,54,33,29.80,29.69,16,2,18,0.00
2013-7-8,80.9,65.6,51.3,50.1,44.5,35.6,87,52,23,29.86,29.76,13,3,16,0.02
2013-7-9,82.1,70.4,63.2,44.0,40.9,37.5,47,35,22,29.83,29.72,15,2,21,0.00
2013-7-10,82.8,64.8,54.9,52.3,45.5,38.4,83,52,26,29.83,29.70,21,3,26,0.08
2013-7-11,83.8,66.0,51.0,51.8,47.2,37.5,94,57,20,29.83,29.65,22,3,26,0.00
2013-7-12,81.6,67.4,60.7,52.8,46.2,43.0,62,47,28,29.70,29.56,18,3,21,0.04
2013-7-13,82.5,66.8,59.2,49.2,47.3,43.3,65,51,29,29.76,29.68,18,2,20,0.00
2013-7-14,76.1,60.7,52.2,52.7,49.6,46.6,93,69,40,29.90,29.73,25,2,25,0.00
2013-7-15,54.2,51.9,48.8,52.5,49.6,44.8,96,92,86,30.03,29.85,11,2,13,0.17
2013-7-16,66.8,54.5,43.9,49.2,44.7,40.9,92,71,49,30.07,29.99,13,3,19,0.00
2013-7-17,74.3,66.3,54.7,51.3,46.5,43.7,75,50,38,30.06,29.92,12,3,17,0.00
2013-7-18,78.8,61.2,51.0,50.9,47.2,43.1,93,63,34,29.95,29.72,15,3,22,0.35
2013-7-19,73.5,57.3,50.3,53.5,48.8,45.7,92,75,44,29.93,29.85,18,2,21,0.42
2013-7-20,77.2,61.9,49.6,53.8,47.8,43.1,88,63,32,29.91,29.69,16,2,16,0.00
2013-7-21,80.7,65.2,52.0,51.5,43.7,32.1,90,53,20,29.75,29.62,16,3,25,0.00
2013-7-22,81.6,69.0,61.8,43.1,39.5,35.3,44,35,21,29.70,29.61,17,3,19,0.00
2013-7-23,85.7,69.8,58.7,47.7,37.8,30.9,59,34,16,29.76,29.63,18,2,28,0.16
2013-7-24,65.8,59.4,51.2,56.7,49.7,36.7,92,71,39,29.91,29.72,18,3,25,0.17
2013-7-25,71.3,58.9,52.2,52.8,47.3,43.5,86,67,39,29.99,29.83,15,3,19,0.09
2013-7-26,67.9,58.1,49.3,53.0,47.5,43.9,85,69,52,30.03,29.96,15,2,18,0.00
2013-7-27,77.0,59.8,52.4,51.1,46.3,39.0,86,63,26,30.00,29.70,22,3,23,0.29
2013-7-28,65.7,56.4,49.9,53.0,49.6,46.5,93,79,53,29.78,29.69,12,3,17,0.07
2013-7-29,72.8,59.8,50.9,51.3,45.9,40.4,94,63,32,29.94,29.72,15,3,21,0.00
2013-7-30,76.1,63.2,49.8,43.8,40.1,34.9,73,45,28,29.99,29.92,22,3,22,0.00
2013-7-31,80.9,66.4,55.1,51.2,40.9,29.9,76,43,17,30.00,29.81,14,2,17,0.00
2013-8-1,71.3,60.0,51.8,52.2,48.1,44.7,87,67,42,29.84,29.77,16,3,21,0.06
2013-8-2,79.0,63.3,54.9,52.8,45.1,41.0,77,53,29,29.81,29.70,19,4,20,0.01
2013-8-3,77.3,63.0,53.9,51.7,46.2,43.1,92,56,33,29.92,29.77,15,2,17,0.01
2013-8-4,82.5,60.6,50.7,53.7,47.9,36.0,93,69,25,29.94,29.78,13,2,18,0.24
2013-8-5,76.8,60.8,53.0,50.9,46.6,40.7,87,62,30,29.91,29.79,17,2,24,0.01
2013-8-6,75.9,57.8,50.2,49.6,45.2,38.5,88,66,29,29.86,29.73,18,2,20,0.29
2013-8-7,56.0,51.8,49.1,49.2,44.8,41.5,93,77,65,29.94,29.82,11,2,16,0.02
2013-8-8,64.8,53.5,48.5,49.5,42.5,38.1,76,67,52,30.00,29.84,14,1,18,0.02
2013-8-9,68.8,53.5,45.5,50.0,42.0,38.5,85,66,39,30.08,29.97,12,2,16,0.02
2013-8-10,72.8,56.8,47.8,45.3,40.9,35.0,88,58,28,30.09,29.91,21,3,30,0.03
2013-8-11,70.9,56.7,48.5,47.5,40.7,36.3,84,57,35,30.00,29.89,15,3,16,0.57
2013-8-12,69.8,55.7,48.4,49.6,43.5,40.1,82,64,38,30.01,29.90,12,1,17,0.05
2013-8-13,71.3,55.7,45.6,48.6,44.0,37.6,92,68,31,30.02,29.93,12,2,16,0.00
2013-8-14,74.2,59.4,48.8,46.7,40.5,30.3,84,54,21,30.00,29.87,15,2,17,0.00
2013-8-15,77.2,62.6,49.7,46.6,39.1,30.8,75,46,19,29.93,29.83,15,2,19,0.00
2013-8-16,80.8,65.2,52.8,44.7,38.0,30.1,62,40,18,29.90,29.81,15,2,17,0.00
2013-8-17,79.9,67.0,57.7,45.7,36.2,30.5,56,34,18,29.88,29.73,12,2,14,0.00
2013-8-18,79.8,65.6,58.3,46.7,41.1,35.1,63,43,20,29.80,29.72,14,3,21,0.00
2013-8-19,80.5,66.8,52.6,44.8,40.8,37.6,63,40,25,29.86,29.78,14,2,19,0.00
2013-8-20,79.5,66.6,55.1,44.1,39.8,33.4,57,39,23,29.82,29.69,20,1,23,0.00
2013-8-21,80.3,66.0,60.4,45.8,42.7,39.1,50,43,26,29.82,29.71,14,2,14,0.00
2013-8-22,78.9,64.1,51.2,56.0,46.8,41.2,91,56,33,29.86,29.68,17,3,22,0.71
2013-8-23,74.7,59.9,50.5,51.2,46.9,34.9,93,66,35,29.86,29.70,19,2,19,0.05
2013-8-24,73.3,62.1,54.7,54.6,44.4,34.5,65,53,36,29.84,29.71,18,4,21,0.03
2013-8-25,68.3,60.4,54.5,50.7,47.8,45.8,75,64,46,29.93,29.84,19,5,25,0.02
2013-8-26,77.8,66.1,56.7,50.9,47.4,44.1,74,53,32,29.93,29.78,17,4,26,0.00
2013-8-27,78.2,65.3,57.5,54.6,47.1,40.9,69,53,30,29.82,29.72,14,2,18,0.01
2013-8-28,81.5,67.4,56.3,49.4,43.2,37.1,65,44,22,29.81,29.71,16,2,17,0.00
2013-8-29,82.0,67.5,56.7,47.6,43.1,37.6,59,43,22,29.85,29.75,12,1,15,0.00
2013-8-30,80.0,66.9,58.3,48.4,44.5,36.7,63,46,24,29.86,29.74,17,2,21,0.00
2013-8-31,79.3,62.9,57.2,49.6,46.1,42.1,73,56,30,29.82,29.71,16,1,19,0.00
2013-9-1,71.6,59.4,54.1,55.0,49.8,45.1,93,72,46,29.92,29.80,17,2,17,0.07
2013-9-2,78.0,60.7,53.2,52.3,47.3,42.9,93,63,33,29.92,29.82,18,2,24,0.00
2013-9-3,79.3,65.4,57.6,50.0,46.4,43.5,64,51,32,29.86,29.78,20,2,24,0.00
2013-9-4,77.4,64.2,57.7,50.6,47.5,44.6,70,56,34,29.93,29.83,14,2,18,0.00
2013-9-5,82.8,67.5,56.0,48.2,43.4,38.1,67,44,25,29.94,29.82,15,2,23,0.00
2013-9-6,83.3,68.8,59.5,45.9,39.8,36.8,47,36,21,29.84,29.68,17,2,19,0.00
2013-9-7,81.1,66.5,56.2,44.2,40.6,38.3,57,40,24,29.79,29.67,18,2,21,0.00
2013-9-8,78.0,67.1,58.4,44.7,41.7,38.2,52,40,26,29.73,29.53,15,3,20,0.00
2013-9-9,74.5,63.6,56.4,48.5,43.7,41.2,74,49,34,29.63,29.50,17,4,24,0.05
2013-9-10,57.7,51.9,50.0,51.6,48.8,47.4,95,89,72,29.96,29.62,12,2,12,0.59
2013-9-11,58.8,52.3,49.8,54.1,50.4,48.4,96,93,81,30.00,29.93,11,2,13,0.34
2013-9-12,56.9,52.2,50.2,53.2,50.6,49.1,97,94,85,30.03,29.93,11,2,14,0.40
2013-9-13,55.7,51.4,48.7,50.5,47.6,43.3,100,87,73,29.93,29.76,12,3,17,0.59
2013-9-14,64.7,54.4,49.0,47.8,44.2,40.9,85,70,48,29.83,29.69,16,3,19,0.00
2013-9-15,62.2,50.5,45.0,49.3,43.9,39.1,95,79,60,30.06,29.78,20,2,21,0.54
2013-9-16,65.0,51.6,42.2,50.6,45.8,40.9,100,82,49,30.08,29.93,11,2,14,0.18
2013-9-17,67.2,56.9,49.0,47.7,44.6,41.7,88,65,43,29.96,29.68,17,3,19,0.00
2013-9-18,61.3,53.9,46.5,47.0,43.6,39.9,90,69,53,29.77,29.60,19,5,23,0.36
2013-9-19,63.4,51.3,44.8,46.4,41.3,37.0,86,70,44,29.96,29.75,16,4,18,0.04
2013-9-20,66.1,51.4,42.0,47.2,43.4,39.7,94,77,40,29.97,29.85,13,2,14,0.00
2013-9-21,67.4,56.0,45.8,44.8,40.6,37.1,91,58,37,29.91,29.65,12,2,17,0.00
2013-9-22,56.1,49.2,38.0,46.2,40.4,34.6,94,73,52,29.64,29.36,21,2,21,0.29
2013-9-23,53.5,44.4,36.3,35.2,30.0,23.6,91,59,38,30.04,29.41,19,5,27,0.01
2013-9-24,65.4,50.6,36.3,30.0,25.7,19.4,65,40,22,30.10,29.79,16,2,21,0.00
2013-9-25,65.1,57.3,51.3,34.3,28.0,18.8,38,33,25,29.80,29.38,30,10,37,0.00
2013-9-26,66.5,56.1,47.6,28.9,24.1,20.0,38,29,21,29.54,29.41,28,7,28,0.00
2013-9-27,52.3,44.6,32.4,40.0,30.2,18.5,78,58,39,29.87,29.45,23,5,36,0.02
2013-9-28,59.0,42.7,30.1,27.1,18.5,12.4,58,39,21,30.18,29.86,17,3,22,0.00
2013-9-29,63.1,50.9,41.1,26.4,20.5,17.3,43,31,20,30.13,29.83,20,3,25,0.00
2013-9-30,67.9,57.3,48.2,35.3,26.7,18.7,36,31,27,29.83,29.63,21,4,25,0.00
2013-10-1,64.5,55.4,47.3,35.6,29.2,23.6,52,37,29,29.80,29.69,12,2,15,0.00
2013-10-2,65.7,55.2,47.0,31.0,23.3,15.8,52,30,21,29.82,29.66,16,2,18,0.00
2013-10-3,63.9,54.1,47.2,27.6,24.1,20.0,39,31,21,29.66,29.43,27,7,32,0.00
2013-10-4,51.0,35.3,25.7,24.9,14.1,5.1,59,42,24,30.11,29.41,35,6,37,0.00
2013-10-5,50.5,35.0,24.2,14.5,8.8,0.1,53,36,15,30.33,30.10,18,5,25,0.00
2013-10-6,62.9,44.6,31.9,27.1,14.8,2.5,38,30,24,30.32,30.15,13,2,15,0.00
2013-10-7,68.5,53.5,41.4,27.0,21.9,16.1,41,30,20,30.20,29.82,17,2,23,0.00
2013-10-8,61.6,54.0,46.3,26.1,22.4,18.0,34,29,24,29.82,29.55,22,7,27,0.00
2013-10-9,60.5,52.0,45.7,30.3,24.2,18.5,47,34,24,29.72,29.61,22,4,26,0.00
2013-10-10,54.7,40.0,27.2,36.1,29.1,21.1,93,67,37,29.72,29.40,28,5,35,0.06
2013-10-11,47.9,38.5,31.9,27.9,23.7,20.7,67,55,43,30.05,29.63,21,6,28,0.01
2013-10-12,48.6,37.0,28.1,31.9,27.0,21.0,89,68,43,30.14,30.03,10,2,13,0.00
2013-10-13,56.5,44.7,33.9,36.6,31.3,24.8,82,60,40,30.14,29.82,20,5,27,0.02
2013-10-14,46.1,39.1,30.0,35.0,23.3,19.4,89,54,36,30.04,29.72,21,6,25,0.00
2013-10-15,33.5,26.3,23.0,26.6,22.7,20.3,100,87,59,30.28,30.03,9,1,9,0.01
2013-10-16,41.8,30.1,21.0,28.5,20.3,13.2,93,70,41,30.28,30.16,12,2,18,0.14
2013-10-17,47.6,35.2,26.2,21.3,15.0,9.1,67,45,25,30.16,29.95,15,3,17,0.00
2013-10-18,42.1,29.5,22.5,26.6,18.2,7.9,92,67,25,30.25,29.94,12,2,15,0.04
2013-10-19,51.3,37.9,27.4,19.9,14.2,6.8,52,38,27,30.26,29.98,19,4,22,0.00
2013-10-20,50.7,38.2,30.6,27.9,19.6,13.2,89,50,30,30.01,29.79,13,2,18,0.00
2013-10-21,50.1,36.4,26.2,27.7,22.1,15.7,93,62,26,30.23,30.01,10,1,16,0.02
2013-10-22,58.9,42.4,31.6,26.0,20.9,16.6,55,44,24,30.24,30.08,12,2,16,0.00
2013-10-23,60.7,46.4,35.6,24.5,21.2,17.2,53,38,22,30.11,29.98,13,3,15,0.00
2013-10-24,59.7,43.4,35.3,28.9,24.7,21.1,73,50,24,30.12,30.00,13,2,14,0.00
2013-10-25,54.2,42.7,35.0,33.3,27.6,23.4,81,57,33,30.12,30.00,11,2,14,0.00
2013-10-26,55.3,42.6,34.8,31.2,27.4,22.8,77,57,29,30.26,30.12,11,1,13,0.00
2013-10-27,52.7,44.6,38.6,28.2,25.3,22.7,57,47,35,30.13,29.77,17,4,26,0.00
2013-10-28,52.6,40.9,28.8,29.2,25.4,17.6,81,56,29,29.83,29.69,25,4,25,0.00
2013-10-29,46.9,39.3,32.2,30.6,22.2,16.3,92,52,30,29.88,29.73,26,7,30,0.01
2013-10-30,39.3,31.6,26.1,29.4,17.7,13.0,90,57,41,29.89,29.74,24,4,38,0.00
2013-10-31,38.9,30.2,25.1,17.1,14.5,11.4,61,52,37,30.07,29.87,25,7,27,0.01
2013-11-1,45.9,34.3,28.1,19.1,15.7,10.7,64,48,24,30.28,30.06,15,2,26,0.00
2013-11-2,54.6,41.1,27.6,17.7,12.4,7.0,50,32,18,30.27,29.86,32,4,35,0.00
2013-11-3,50.2,41.2,33.6,23.8,17.9,10.7,56,39,22,29.87,29.46,23,7,31,0.00
2013-11-4,35.2,27.8,21.6,23.8,18.1,9.9,89,68,38,29.98,29.67,18,3,19,0.00
2013-11-5,32.9,25.7,17.7,24.9,14.2,-1.3,92,64,39,30.27,29.91,19,3,26,0.12
2013-11-6,37.9,28.8,18.8,14.1,7.9,-3.0,49,41,35,30.52,30.26,19,5,26,0.01
2013-11-7,50.4,37.2,26.5,19.8,15.1,11.7,55,41,28,30.51,30.11,15,3,18,0.01
2013-11-8,51.6,42.8,35.0,18.2,15.1,11.3,43,33,25,30.11,29.84,23,5,30,0.00
2013-11-9,56.1,43.2,34.4,21.8,17.9,14.2,57,37,21,30.13,29.96,12,2,15,0.00
2013-11-10,55.4,44.1,35.2,21.2,16.1,12.0,56,33,22,30.19,30.11,13,2,17,0.00
2013-11-11,54.1,42.3,26.6,23.0,16.4,12.3,79,37,23,30.37,30.13,12,3,15,0.00
2013-11-12,49.8,33.4,21.3,27.1,20.8,16.1,93,64,31,30.60,30.37,9,1,11,0.00
2013-11-13,51.3,42.1,35.6,19.8,15.7,13.5,42,34,26,30.53,29.97,14,3,14,0.00
2013-11-14,49.9,39.0,31.8,22.4,18.2,9.0,62,45,19,29.97,29.75,12,2,15,0.00
2013-11-15,42.7,35.2,29.4,27.5,19.6,11.9,90,55,39,29.76,29.51,26,5,31,0.00
2013-11-16,36.4,31.4,26.0,26.6,20.6,10.8,92,65,35,29.58,29.44,28,8,38,0.00
2013-11-17,40.9,33.3,25.4,23.8,16.5,12.2,91,52,36,30.17,29.58,29,6,33,0.00
2013-11-18,50.2,37.6,26.8,18.2,14.3,9.1,51,39,22,30.22,30.05,14,2,17,0.00
2013-11-19,44.8,37.4,32.4,21.2,17.6,13.2,54,45,36,30.05,29.73,18,4,20,0.00
2013-11-20,45.2,36.9,30.5,27.3,21.9,19.6,87,55,38,29.84,29.72,15,3,20,0.00
2013-11-21,30.5,20.6,7.7,27.1,18.2,4.4,93,90,86,30.57,29.82,9,2,10,0.01
2013-11-22,21.2,16.1,6.8,18.5,13.4,3.5,91,89,86,30.81,30.56,5,0,6,0.00
2013-11-23,22.8,18.1,15.2,18.1,14.9,11.9,92,87,73,30.80,30.55,6,0,6,0.00
2013-11-24,28.3,23.2,15.7,24.4,20.5,13.0,93,89,83,30.55,30.08,8,1,9,0.00
2013-11-25,30.5,25.5,22.2,23.6,18.8,13.8,92,76,64,30.43,30.07,10,1,15,0.01
2013-11-26,34.1,26.3,20.1,21.9,17.6,13.5,82,70,54,30.54,30.42,11,1,12,0.34
2013-11-27,43.8,33.0,23.5,25.2,17.3,12.0,63,52,43,30.43,30.18,12,1,13,0.13
2013-11-28,44.3,34.2,27.9,21.8,15.4,11.0,57,46,33,30.23,30.13,10,1,12,0.01
2013-11-29,41.8,34.3,29.7,15.7,12.4,9.9,48,40,31,30.26,30.17,19,4,20,0.00
2013-11-30,40.8,32.8,29.0,17.7,13.4,11.0,55,45,32,30.27,30.18,18,3,18,0.00
2013-12-1,39.9,33.3,26.5,20.3,14.4,10.6,56,46,36,30.24,30.00,20,6,24,0.00
2013-12-2,43.6,36.8,32.7,20.1,17.7,13.9,56,46,35,30.01,29.62,23,7,32,0.00
2013-12-3,34.8,32.4,29.1,22.4,18.2,13.9,71,56,43,29.63,29.41,23,7,28,0.00
2013-12-4,30.1,6.5,-9.2,20.8,1.5,-14.2,94,80,67,30.22,29.37,21,3,28,0.00
2013-12-5,12.6,-3.1,-13.0,6.7,-8.0,-18.2,92,79,72,30.48,30.21,6,0,7,0.12
2013-12-6,11.3,1.5,-12.4,3.6,-5.0,-17.6,83,74,61,30.61,30.45,26,3,32,0.00
2013-12-7,18.6,13.4,8.3,10.6,4.0,-3.1,87,66,52,30.52,29.87,27,6,37,0.00
2013-12-8,15.2,10.7,3.5,10.8,-2.1,-10.1,88,58,38,30.18,29.78,21,4,22,0.00
2013-12-9,12.3,6.0,-1.0,-8.1,-10.7,-13.0,68,47,32,30.65,30.18,26,6,30,0.00
2013-12-10,29.7,20.5,3.6,7.1,0.7,-12.8,47,42,36,30.66,30.32,21,6,28,0.00
2013-12-11,34.4,24.9,15.8,9.8,4.0,0.0,61,42,29,30.54,30.37,16,3,20,0.01
2013-12-12,44.0,33.9,20.4,10.0,3.6,-1.2,42,28,18,30.53,29.99,16,4,18,0.01
2013-12-13,39.0,30.9,21.5,12.2,9.1,5.1,55,40,30,30.10,29.80,20,4,21,0.00
2013-12-14,32.1,23.4,14.7,10.4,7.2,4.8,66,50,36,30.46,30.11,23,5,23,0.00
2013-12-15,42.3,31.7,23.3,18.2,12.9,9.7,60,46,33,30.43,30.29,25,7,30,0.00
2013-12-16,45.4,37.3,30.7,18.9,13.0,7.3,45,37,30,30.30,30.18,21,5,21,0.00
2013-12-17,47.9,38.5,30.0,17.6,11.7,7.5,41,33,26,30.36,30.17,18,2,23,0.00
2013-12-18,48.8,42.5,36.7,18.8,11.4,7.4,42,28,21,30.17,29.64,19,6,25,0.00
2013-12-19,42.6,35.8,29.3,18.7,15.8,11.4,60,44,33,29.63,29.47,21,6,27,0.00
2013-12-20,31.0,26.5,23.2,19.9,16.0,12.0,73,64,57,29.70,29.60,21,4,25,0.00
2013-12-21,27.1,20.9,14.6,17.2,10.8,5.8,88,66,44,29.96,29.57,15,2,17,0.00
2013-12-22,25.0,16.8,10.0,12.0,5.7,3.0,88,63,45,30.39,29.96,17,3,26,0.10
2013-12-23,32.0,23.9,18.0,13.4,8.3,3.8,66,51,39,30.50,30.38,16,4,23,0.01
2013-12-24,37.4,28.0,16.1,19.6,14.3,0.7,74,56,43,30.42,30.12,23,5,28,0.00
2013-12-25,34.2,23.7,12.9,7.2,1.4,-6.0,55,38,30,30.56,30.35,14,3,18,0.00
2013-12-26,41.4,31.9,26.2,12.4,6.6,-0.8,54,35,26,30.49,30.31,18,4,22,0.00
2013-12-27,46.9,33.8,24.1,20.0,15.4,10.6,58,47,34,30.39,30.13,9,2,13,0.00
2013-12-28,42.5,32.8,19.7,25.6,17.6,13.6,90,56,36,30.13,29.82,15,4,18,0.00
2013-12-29,25.7,19.8,13.7,20.7,13.8,7.2,94,79,51,30.25,29.98,22,3,24,0.13
2013-12-30,35.3,27.3,22.0,11.5,8.5,5.7,55,45,34,30.39,30.22,16,4,21,0.03
2013-12-31,41.0,32.3,26.2,18.9,13.7,8.0,59,46,39,30.30,30.00,24,5,30,0.02
2014-1-1,33.9,27.2,17.5,22.1,12.8,5.7,91,56,34,30.31,29.93,20,4,22,0.01
2014-1-2,43.0,31.3,19.7,11.8,6.3,1.2,55,35,26,30.39,30.15,15,4,20,0.00